Time;durP1;ratioP1;P1;durP2;ratioP2;P2;SDS_P1;SDS_P2;PMS_P1;PMS_P2;Temp;Humidity;BMP_temperature;BMP_pressure;BME280_temperature;BME280_humidity;BME280_pressure;Samples;Min_cycle;Max_cycle;Signal;HPM_P1;HPM_P2
2023/03/03 00:01:09;;;;;;;24.47;11.93;;;10.40;72.50;;;;;;4967841;28;20201;-75
2023/03/03 00:03:37;;;;;;;23.30;11.97;;;10.40;72.70;;;;;;4966912;28;20198;-75
2023/03/03 00:06:09;;;;;;;24.37;11.97;;;10.30;72.60;;;;;;4975405;28;20702;-76
2023/03/03 00:08:38;;;;;;;23.03;11.17;;;10.30;72.60;;;;;;4973783;28;20674;-76
2023/03/03 00:11:06;;;;;;;22.10;11.70;;;10.30;72.70;;;;;;4970455;28;20236;-76
2023/03/03 00:13:44;;;;;;;26.17;11.80;;;10.20;72.90;;;;;;4972573;28;20292;-77
2023/03/03 00:16:22;;;;;;;20.23;10.63;;;10.20;73.00;;;;;;4973444;28;20252;-76
2023/03/03 00:18:51;;;;;;;23.23;11.83;;;10.20;73.00;;;;;;4971360;28;20615;-76
2023/03/03 00:21:28;;;;;;;25.17;12.43;;;10.20;73.00;;;;;;4969349;28;20651;-77
2023/03/03 00:24:15;;;;;;;24.17;12.67;;;10.10;73.20;;;;;;4967501;28;20224;-76
2023/03/03 00:26:45;;;;;;;24.37;11.27;;;10.10;73.50;;;;;;4975137;28;20201;-76
2023/03/03 00:29:34;;;;;;;23.07;11.73;;;10.10;73.50;;;;;;4977398;28;20213;-76
2023/03/03 00:32:21;;;;;;;27.10;11.07;;;10.00;73.30;;;;;;4972878;28;20201;-77
2023/03/03 00:34:50;;;;;;;20.67;11.73;;;10.00;73.40;;;;;;4970538;28;20204;-76
2023/03/03 00:37:29;;;;;;;24.53;11.43;;;10.00;73.50;;;;;;4974134;28;20198;-76
2023/03/03 00:40:24;;;;;;;23.73;11.47;;;10.00;73.50;;;;;;4970337;28;20197;-77
2023/03/03 00:42:55;;;;;;;23.27;10.90;;;10.00;73.50;;;;;;4968339;28;20220;-76
2023/03/03 00:45:30;;;;;;;21.20;11.73;;;10.00;73.40;;;;;;4968994;28;20225;-77
2023/03/03 00:48:01;;;;;;;24.70;11.40;;;10.00;73.50;;;;;;4970751;28;20209;-76
2023/03/03 00:50:34;;;;;;;23.10;11.73;;;10.00;73.50;;;;;;4976312;28;20201;-76
2023/03/03 00:53:05;;;;;;;24.97;12.27;;;9.90;73.30;;;;;;4972915;28;20215;-76
2023/03/03 00:55:34;;;;;;;26.97;12.30;;;9.90;73.30;;;;;;4969373;28;20209;-77
2023/03/03 00:58:04;;;;;;;24.43;12.30;;;9.90;73.30;;;;;;4964245;28;20193;-76
2023/03/03 01:00:34;;;;;;;25.73;12.37;;;9.90;73.40;;;;;;4977219;28;20193;-77
2023/03/03 01:03:05;;;;;;;22.60;12.30;;;9.90;73.40;;;;;;4973844;28;20696;-77
2023/03/03 01:05:34;;;;;;;24.10;12.27;;;9.80;73.30;;;;;;4968477;28;20252;-76
2023/03/03 01:08:03;;;;;;;28.23;12.83;;;9.80;73.30;;;;;;4965500;28;20225;-75
2023/03/03 01:10:34;;;;;;;31.97;12.97;;;9.80;73.40;;;;;;4970533;28;20242;-76
2023/03/03 01:13:03;;;;;;;30.17;13.67;;;9.80;73.40;;;;;;4965313;28;20213;-76
2023/03/03 01:15:33;;;;;;;23.93;12.70;;;9.80;73.40;;;;;;4970663;28;20276;-75
2023/03/03 01:18:01;;;;;;;22.27;12.07;;;9.70;73.40;;;;;;4972809;28;20197;-76
2023/03/03 01:20:30;;;;;;;25.60;12.63;;;9.80;73.60;;;;;;4972864;28;20522;-76
2023/03/03 01:22:59;;;;;;;27.30;13.77;;;9.70;73.50;;;;;;4968430;28;20202;-76
2023/03/03 01:25:27;;;;;;;23.43;13.07;;;9.70;73.60;;;;;;4972685;28;20205;-76
2023/03/03 01:27:56;;;;;;;28.30;12.63;;;9.60;73.60;;;;;;4977578;28;20448;-75
2023/03/03 01:30:24;;;;;;;24.03;11.93;;;9.60;73.70;;;;;;4970657;28;20651;-76
2023/03/03 01:32:54;;;;;;;31.00;12.33;;;9.60;73.80;;;;;;4965770;28;20206;-76
2023/03/03 01:35:23;;;;;;;26.60;13.03;;;9.60;74.00;;;;;;4967912;28;20194;-75
2023/03/03 01:37:51;;;;;;;24.20;12.17;;;9.60;74.10;;;;;;4967197;28;20652;-76
2023/03/03 01:40:23;;;;;;;25.87;12.47;;;9.60;74.10;;;;;;4964540;28;20605;-76
2023/03/03 01:42:58;;;;;;;21.80;11.90;;;9.50;74.10;;;;;;4971429;28;20568;-76
2023/03/03 01:45:30;;;;;;;26.50;13.40;;;9.50;74.10;;;;;;4963851;28;20197;-76
2023/03/03 01:48:06;;;;;;;26.30;12.47;;;9.50;74.20;;;;;;4973445;28;20206;-76
2023/03/03 01:50:40;;;;;;;22.47;12.17;;;9.50;74.30;;;;;;4969487;28;20196;-77
2023/03/03 01:53:15;;;;;;;24.10;12.23;;;9.50;74.60;;;;;;4966905;28;20199;-78
2023/03/03 01:55:45;;;;;;;22.53;12.57;;;9.50;74.50;;;;;;4959844;28;20221;-78
2023/03/03 01:58:18;;;;;;;19.60;11.10;;;9.50;74.60;;;;;;4972883;28;20706;-76
2023/03/03 02:00:52;;;;;;;25.83;12.93;;;9.50;74.60;;;;;;4966102;28;20720;-77
2023/03/03 02:03:24;;;;;;;29.67;12.80;;;9.50;74.70;;;;;;4977193;28;20232;-76
2023/03/03 02:05:55;;;;;;;27.77;13.53;;;9.50;74.70;;;;;;4969801;28;20213;-76
2023/03/03 02:08:28;;;;;;;26.47;12.93;;;9.50;75.00;;;;;;4962951;28;20216;-77
2023/03/03 02:10:57;;;;;;;22.67;12.20;;;9.50;75.00;;;;;;4967725;28;20269;-76
2023/03/03 02:13:26;;;;;;;23.13;12.23;;;9.40;75.20;;;;;;4974073;28;20697;-76
2023/03/03 02:15:58;;;;;;;26.20;12.80;;;9.40;75.20;;;;;;4969663;28;20209;-78
2023/03/03 02:18:29;;;;;;;26.40;12.70;;;9.40;75.20;;;;;;4966947;28;20632;-76
2023/03/03 02:21:03;;;;;;;29.73;13.47;;;9.40;75.20;;;;;;4978046;28;20197;-76
2023/03/03 02:23:39;;;;;;;27.17;13.80;;;9.40;75.30;;;;;;4966073;28;21264;-76
2023/03/03 02:26:13;;;;;;;27.47;13.00;;;9.40;75.30;;;;;;4973480;28;20267;-76
2023/03/03 02:28:42;;;;;;;24.23;12.93;;;9.40;75.30;;;;;;4973180;28;20688;-76
2023/03/03 02:31:14;;;;;;;26.10;12.63;;;9.50;75.50;;;;;;4967615;28;20206;-75
2023/03/03 02:33:44;;;;;;;25.80;12.80;;;9.40;75.50;;;;;;4962965;28;20197;-76
2023/03/03 02:36:14;;;;;;;27.67;12.43;;;9.50;75.80;;;;;;4977698;28;20256;-77
2023/03/03 02:38:49;;;;;;;27.37;13.20;;;9.40;75.60;;;;;;4965573;28;20221;-76
2023/03/03 02:41:28;;;;;;;30.23;13.07;;;9.40;75.60;;;;;;4977408;28;20196;-76
2023/03/03 02:43:59;;;;;;;22.97;12.47;;;9.40;75.80;;;;;;4966072;28;20201;-76
2023/03/03 02:46:32;;;;;;;30.07;13.50;;;9.40;75.80;;;;;;4969048;28;20244;-77
2023/03/03 02:49:00;;;;;;;32.70;14.70;;;9.40;75.80;;;;;;4969702;28;20256;-77
2023/03/03 02:51:28;;;;;;;28.27;13.07;;;9.40;76.00;;;;;;4970275;28;20245;-77
2023/03/03 02:53:57;;;;;;;27.40;13.20;;;9.40;76.20;;;;;;4967773;28;20260;-76
2023/03/03 02:56:27;;;;;;;29.30;14.10;;;9.40;76.30;;;;;;4971609;28;20198;-76
2023/03/03 02:58:56;;;;;;;28.87;14.17;;;9.40;76.40;;;;;;4978914;28;20702;-81
2023/03/03 03:01:24;;;;;;;26.10;13.10;;;9.40;76.40;;;;;;4974552;28;20217;-77
2023/03/03 03:03:53;;;;;;;27.97;13.73;;;9.40;76.50;;;;;;4965593;28;20217;-77
2023/03/03 03:06:21;;;;;;;30.27;14.43;;;9.40;76.50;;;;;;4967252;28;20246;-77
2023/03/03 03:08:50;;;;;;;23.13;12.10;;;9.50;76.60;;;;;;4965336;28;20232;-77
2023/03/03 03:11:18;;;;;;;27.77;13.47;;;9.40;76.60;;;;;;4965321;28;20324;-77
2023/03/03 03:13:48;;;;;;;24.33;13.03;;;9.50;76.60;;;;;;4976321;28;20354;-77
2023/03/03 03:16:16;;;;;;;26.60;12.73;;;9.40;76.50;;;;;;4960748;28;20203;-77
2023/03/03 03:18:45;;;;;;;28.63;13.63;;;9.50;76.60;;;;;;4970611;28;20198;-77
2023/03/03 03:21:14;;;;;;;30.60;14.20;;;9.50;76.80;;;;;;4967041;28;20622;-77
2023/03/03 03:23:42;;;;;;;23.97;12.90;;;9.40;76.70;;;;;;4971384;28;20682;-78
2023/03/03 03:26:11;;;;;;;25.73;13.07;;;9.40;76.70;;;;;;4961621;28;20206;-77
2023/03/03 03:28:40;;;;;;;25.77;13.53;;;9.40;76.80;;;;;;4967919;28;20552;-77
2023/03/03 03:31:10;;;;;;;28.27;13.67;;;9.40;76.90;;;;;;4972400;28;20232;-77
2023/03/03 03:33:39;;;;;;;27.30;13.53;;;9.40;76.90;;;;;;4964013;28;20214;-77
2023/03/03 03:36:08;;;;;;;23.30;12.30;;;9.40;76.80;;;;;;4979401;28;20206;-78
2023/03/03 03:38:37;;;;;;;26.00;13.60;;;9.50;76.90;;;;;;4977154;28;20194;-77
2023/03/03 03:41:06;;;;;;;25.67;13.13;;;9.50;76.90;;;;;;4983403;28;20236;-77
2023/03/03 03:43:35;;;;;;;28.27;13.90;;;9.50;76.90;;;;;;4978872;28;20201;-77
2023/03/03 03:46:03;;;;;;;26.27;13.53;;;9.50;76.90;;;;;;4976471;28;20205;-77
2023/03/03 03:48:33;;;;;;;31.07;14.10;;;9.50;76.90;;;;;;4968015;28;20710;-78
2023/03/03 03:51:02;;;;;;;27.80;14.20;;;9.50;76.80;;;;;;4974655;28;20283;-77
2023/03/03 03:53:31;;;;;;;34.27;12.87;;;9.50;76.80;;;;;;4964683;28;20198;-76
2023/03/03 03:55:59;;;;;;;25.77;13.50;;;9.50;76.70;;;;;;4970255;28;20206;-77
2023/03/03 03:58:28;;;;;;;27.17;11.97;;;9.60;76.80;;;;;;4973533;28;20280;-79
2023/03/03 04:01:01;;;;;;;25.43;12.77;;;9.60;76.70;;;;;;4971280;28;20578;-78
2023/03/03 04:03:29;;;;;;;28.33;12.30;;;9.60;76.70;;;;;;4965660;28;20198;-77
2023/03/03 04:05:59;;;;;;;28.57;13.50;;;9.60;76.60;;;;;;4967520;28;20204;-78
2023/03/03 04:08:27;;;;;;;28.47;13.50;;;9.60;76.60;;;;;;4967196;28;20225;-76
2023/03/03 04:10:56;;;;;;;24.97;13.47;;;9.70;76.60;;;;;;4961956;28;20293;-77
2023/03/03 04:13:30;;;;;;;22.03;12.20;;;9.70;76.60;;;;;;4973390;28;20201;-77
2023/03/03 04:16:02;;;;;;;23.30;13.17;;;9.70;76.50;;;;;;4973380;28;20285;-75
2023/03/03 04:18:31;;;;;;;29.03;12.97;;;9.70;76.50;;;;;;4970280;28;20292;-76
2023/03/03 04:21:01;;;;;;;24.37;13.00;;;9.70;76.50;;;;;;4976520;28;20536;-77
2023/03/03 04:23:29;;;;;;;25.80;12.30;;;9.70;76.40;;;;;;4968246;28;20198;-77
2023/03/03 04:25:58;;;;;;;26.47;14.13;;;9.70;76.30;;;;;;4976511;28;20229;-77
2023/03/03 04:28:26;;;;;;;26.27;13.23;;;9.70;76.30;;;;;;4965995;28;20237;-76
2023/03/03 04:30:54;;;;;;;25.60;12.73;;;9.80;76.20;;;;;;4977142;28;20359;-76
2023/03/03 04:33:23;;;;;;;23.50;12.80;;;9.80;76.20;;;;;;4968173;28;20212;-76
2023/03/03 04:35:51;;;;;;;26.23;12.30;;;9.80;76.20;;;;;;4975773;28;20254;-76
2023/03/03 04:38:23;;;;;;;27.30;13.50;;;9.80;76.10;;;;;;4977944;28;20205;-76
2023/03/03 04:40:52;;;;;;;23.80;11.80;;;9.80;76.10;;;;;;4980055;28;20198;-76
2023/03/03 04:43:20;;;;;;;23.40;12.30;;;9.80;76.10;;;;;;4972883;28;20205;-76
2023/03/03 04:45:49;;;;;;;25.80;13.07;;;9.80;76.10;;;;;;4977398;28;20545;-77
2023/03/03 04:48:17;;;;;;;27.70;14.52;;;9.80;76.00;;;;;;4970040;28;20541;-76
2023/03/03 04:50:45;;;;;;;21.93;11.97;;;9.80;76.30;;;;;;4972628;28;20945;-77
2023/03/03 04:53:14;;;;;;;28.73;13.73;;;9.80;77.10;;;;;;4973391;28;20229;-76
2023/03/03 04:55:44;;;;;;;24.30;12.00;;;9.80;76.20;;;;;;4973051;28;20233;-77
2023/03/03 04:58:12;;;;;;;23.70;12.33;;;9.90;76.20;;;;;;4971604;28;20217;-76
2023/03/03 05:00:41;;;;;;;22.30;12.40;;;9.90;76.30;;;;;;4972537;28;20201;-77
2023/03/03 05:03:11;;;;;;;31.30;14.27;;;9.90;76.30;;;;;;4968942;28;20638;-76
2023/03/03 05:05:40;;;;;;;28.90;12.87;;;9.90;76.20;;;;;;4977719;28;20198;-76
2023/03/03 05:08:09;;;;;;;26.80;13.10;;;9.90;76.20;;;;;;4975939;28;20202;-76
2023/03/03 05:10:37;;;;;;;25.07;12.67;;;9.90;76.10;;;;;;4976227;28;20237;-76
2023/03/03 05:13:08;;;;;;;27.20;13.43;;;9.90;76.10;;;;;;4973217;28;20233;-76
2023/03/03 05:15:37;;;;;;;27.33;13.43;;;9.90;76.10;;;;;;4971884;28;20609;-78
2023/03/03 05:18:05;;;;;;;32.20;12.90;;;9.90;75.90;;;;;;4971150;28;20284;-77
2023/03/03 05:20:34;;;;;;;25.27;13.17;;;9.90;75.90;;;;;;4970094;28;20201;-76
2023/03/03 05:23:02;;;;;;;30.20;12.70;;;9.90;75.90;;;;;;4972432;28;20209;-78
2023/03/03 05:25:30;;;;;;;31.93;14.23;;;9.90;75.90;;;;;;4969290;28;20820;-77
2023/03/03 05:27:59;;;;;;;31.70;13.70;;;9.90;75.90;;;;;;4973256;28;20197;-76
2023/03/03 05:30:30;;;;;;;27.03;13.57;;;9.90;75.90;;;;;;4973921;28;20268;-78
2023/03/03 05:32:59;;;;;;;31.43;13.77;;;9.90;75.90;;;;;;4972301;28;21102;-76
2023/03/03 05:35:27;;;;;;;32.10;15.30;;;9.90;75.90;;;;;;4973158;28;20209;-77
2023/03/03 05:37:56;;;;;;;29.83;14.70;;;9.90;75.80;;;;;;4973031;28;20229;-77
2023/03/03 05:40:25;;;;;;;25.93;13.33;;;9.90;75.80;;;;;;4970008;28;20663;-77
2023/03/03 05:42:54;;;;;;;34.63;14.30;;;10.00;75.70;;;;;;4971771;28;20209;-78
2023/03/03 05:45:23;;;;;;;33.83;15.23;;;10.00;75.80;;;;;;4969449;28;20242;-76
2023/03/03 05:47:54;;;;;;;34.00;15.43;;;10.00;75.70;;;;;;4969626;28;20199;-77
2023/03/03 05:50:23;;;;;;;30.77;14.63;;;10.00;75.70;;;;;;4963783;28;20244;-76
2023/03/03 05:52:53;;;;;;;33.13;15.23;;;10.00;75.60;;;;;;4973598;28;20201;-79
2023/03/03 05:55:21;;;;;;;35.47;16.13;;;10.00;75.70;;;;;;4974805;28;20198;-77
2023/03/03 05:57:50;;;;;;;34.40;15.77;;;10.00;75.70;;;;;;4973165;28;20202;-77
2023/03/03 06:00:19;;;;;;;37.07;15.57;;;10.00;75.70;;;;;;4974763;28;20344;-78
2023/03/03 06:02:48;;;;;;;32.13;15.63;;;10.00;75.70;;;;;;4974057;28;20198;-77
2023/03/03 06:05:18;;;;;;;34.23;13.87;;;10.00;75.70;;;;;;4971360;28;20212;-76
2023/03/03 06:07:46;;;;;;;27.63;14.50;;;10.10;76.60;;;;;;4980144;28;20198;-77
2023/03/03 06:10:14;;;;;;;33.73;15.30;;;10.10;75.70;;;;;;4969955;28;20233;-77
2023/03/03 06:12:43;;;;;;;29.30;15.30;;;10.10;75.70;;;;;;4975472;28;20209;-75
2023/03/03 06:15:12;;;;;;;30.13;14.80;;;10.10;75.70;;;;;;4967784;28;20201;-76
2023/03/03 06:17:40;;;;;;;29.13;14.30;;;10.10;75.80;;;;;;4970725;28;20288;-75
2023/03/03 06:20:10;;;;;;;32.53;14.37;;;10.10;75.80;;;;;;4973899;28;20204;-77
2023/03/03 06:22:40;;;;;;;25.93;13.33;;;10.20;75.90;;;;;;4959892;28;20271;-76
2023/03/03 06:25:09;;;;;;;25.43;12.67;;;10.20;75.70;;;;;;4962871;28;21049;-75
2023/03/03 06:27:37;;;;;;;25.87;13.73;;;10.20;75.50;;;;;;4962555;28;20845;-75
2023/03/03 06:30:07;;;;;;;28.63;14.40;;;10.20;75.30;;;;;;4965732;28;20251;-76
2023/03/03 06:32:36;;;;;;;27.40;13.67;;;10.30;75.40;;;;;;4969769;28;20248;-75
2023/03/03 06:35:04;;;;;;;29.67;14.20;;;10.30;75.40;;;;;;4964126;28;20212;-77
2023/03/03 06:37:33;;;;;;;27.07;14.27;;;10.30;75.30;;;;;;4967399;28;20233;-77
2023/03/03 06:40:03;;;;;;;28.57;13.93;;;10.30;75.20;;;;;;4973212;28;20202;-75
2023/03/03 06:42:31;;;;;;;33.00;14.80;;;10.40;75.40;;;;;;4979350;28;20635;-77
2023/03/03 06:45:00;;;;;;;35.73;16.40;;;10.40;75.40;;;;;;4979892;28;20704;-77
2023/03/03 06:47:28;;;;;;;36.73;15.80;;;10.40;75.30;;;;;;4968125;28;20210;-76
2023/03/03 06:49:57;;;;;;;46.80;18.60;;;10.50;75.20;;;;;;4969299;28;20543;-77
2023/03/03 06:52:27;;;;;;;38.63;17.00;;;10.50;75.20;;;;;;4971075;28;20228;-76
2023/03/03 06:54:57;;;;;;;31.70;15.13;;;10.50;75.10;;;;;;4970849;28;20202;-76
2023/03/03 06:57:30;;;;;;;26.73;14.93;;;10.50;75.10;;;;;;4978557;28;20201;-76
2023/03/03 07:00:02;;;;;;;36.97;15.43;;;10.60;75.80;;;;;;4969271;28;20247;-76
2023/03/03 07:02:31;;;;;;;32.43;14.80;;;10.60;74.80;;;;;;4963426;28;20201;-77
2023/03/03 07:04:59;;;;;;;33.37;15.27;;;10.60;74.80;;;;;;4960922;28;20206;-76
2023/03/03 07:07:30;;;;;;;32.40;17.17;;;10.60;74.70;;;;;;4966271;28;20217;-76
2023/03/03 07:09:58;;;;;;;31.97;15.43;;;10.70;74.50;;;;;;4970363;28;20206;-75
2023/03/03 07:12:30;;;;;;;39.00;15.73;;;10.70;74.50;;;;;;4974319;28;20563;-75
2023/03/03 07:15:12;;;;;;;32.30;15.60;;;10.70;74.60;;;;;;4975323;28;20575;-77
2023/03/03 07:17:44;;;;;;;31.23;15.27;;;10.80;74.70;;;;;;4976960;28;20208;-77
2023/03/03 07:20:20;;;;;;;37.23;17.23;;;10.80;74.40;;;;;;4977151;28;20194;-76
2023/03/03 07:22:48;;;;;;;39.93;17.83;;;10.90;74.30;;;;;;4974662;28;20194;-78
2023/03/03 07:25:26;;;;;;;34.53;18.00;;;11.00;74.20;;;;;;4969985;28;20302;-77
2023/03/03 07:28:00;;;;;;;43.57;20.03;;;11.00;74.30;;;;;;4971852;28;20241;-76
2023/03/03 07:30:30;;;;;;;41.23;19.60;;;11.00;74.20;;;;;;4968280;28;20201;-75
2023/03/03 07:32:59;;;;;;;46.83;22.10;;;11.10;74.10;;;;;;4975100;28;20235;-77
2023/03/03 07:35:38;;;;;;;41.97;19.00;;;11.10;74.00;;;;;;4970523;28;20205;-76
2023/03/03 07:38:29;;;;;;;38.77;19.10;;;11.10;74.00;;;;;;4973007;28;20200;-76
2023/03/03 07:41:00;;;;;;;41.67;19.43;;;11.10;74.00;;;;;;4984531;28;20201;-76
2023/03/03 07:43:36;;;;;;;43.93;19.60;;;11.10;74.00;;;;;;4974632;28;20744;-76
2023/03/03 07:46:26;;;;;;;38.03;17.80;;;11.10;73.80;;;;;;4969094;28;20535;-76
2023/03/03 07:48:56;;;;;;;42.73;20.13;;;11.20;73.90;;;;;;4971041;28;20201;-77
2023/03/03 07:51:28;;;;;;;41.77;19.67;;;11.20;74.50;;;;;;4978830;28;20221;-76
2023/03/03 07:54:14;;;;;;;44.13;18.57;;;11.20;73.50;;;;;;4983677;28;20211;-76
2023/03/03 07:56:47;;;;;;;36.83;19.87;;;11.20;73.60;;;;;;4922221;29;20531;-77
2023/03/03 07:59:22;;;;;;;45.87;18.90;;;11.20;73.40;;;;;;4921500;29;20211;-76
2023/03/03 08:01:54;;;;;;;28.93;15.13;;;11.20;73.60;;;;;;4938637;29;20192;-76
2023/03/03 08:04:27;;;;;;;33.33;16.83;;;11.20;73.70;;;;;;4928647;29;20210;-76
2023/03/03 08:06:58;;;;;;;41.83;17.00;;;11.30;73.70;;;;;;4928874;29;20203;-76
2023/03/03 08:09:38;;;;;;;45.77;18.13;;;11.30;73.40;;;;;;4933517;29;20203;-75
2023/03/03 08:12:20;;;;;;;36.07;16.93;;;11.40;73.50;;;;;;4925201;29;20234;-76
2023/03/03 08:14:54;;;;;;;25.13;12.40;;;11.40;73.40;;;;;;4919972;29;20204;-76
2023/03/03 08:17:25;;;;;;;25.80;13.17;;;11.40;74.40;;;;;;4935210;29;20622;-76
2023/03/03 08:19:55;;;;;;;35.73;16.70;;;11.50;73.50;;;;;;4931184;29;20200;-76
2023/03/03 08:22:30;;;;;;;28.60;14.40;;;11.50;73.10;;;;;;4969370;28;20194;-76
2023/03/03 08:24:58;;;;;;;26.27;14.30;;;11.50;73.10;;;;;;4970661;28;20205;-75
2023/03/03 08:27:27;;;;;;;25.13;14.53;;;11.50;72.80;;;;;;4977397;28;20205;-76
2023/03/03 08:29:56;;;;;;;29.33;13.60;;;11.50;72.60;;;;;;4978968;28;20198;-75
2023/03/03 08:32:25;;;;;;;28.37;14.00;;;11.70;72.70;;;;;;4970474;28;20628;-75
2023/03/03 08:34:53;;;;;;;27.43;14.80;;;11.70;72.20;;;;;;4978036;28;20551;-76
2023/03/03 08:37:22;;;;;;;31.37;14.97;;;11.70;72.00;;;;;;4974136;28;20737;-76
2023/03/03 08:39:50;;;;;;;34.53;15.13;;;11.80;72.00;;;;;;4973427;28;20612;-74
2023/03/03 08:42:19;;;;;;;30.53;14.70;;;11.80;71.90;;;;;;4972031;28;20194;-76
2023/03/03 08:44:47;;;;;;;32.03;15.17;;;11.80;71.30;;;;;;4980253;28;20240;-77
2023/03/03 08:47:17;;;;;;;28.37;14.83;;;11.90;71.40;;;;;;4976327;28;20202;-75
2023/03/03 08:49:48;;;;;;;27.80;14.23;;;11.90;71.60;;;;;;4981559;28;20205;-76
2023/03/03 08:52:16;;;;;;;27.57;14.33;;;12.00;70.90;;;;;;4975854;28;20271;-75
2023/03/03 08:54:45;;;;;;;29.97;13.37;;;11.90;70.30;;;;;;4974493;28;20202;-76
2023/03/03 08:57:13;;;;;;;27.20;13.00;;;12.00;70.50;;;;;;4977391;28;20198;-76
2023/03/03 08:59:41;;;;;;;28.03;12.97;;;12.10;70.60;;;;;;4976058;28;20201;-76
2023/03/03 09:02:10;;;;;;;28.43;15.57;;;12.20;70.60;;;;;;4980311;28;20252;-75
2023/03/03 09:04:40;;;;;;;25.90;13.63;;;12.20;70.70;;;;;;4971504;28;20230;-76
2023/03/03 09:07:09;;;;;;;29.13;15.37;;;12.20;69.90;;;;;;4970125;28;20205;-77
2023/03/03 09:09:38;;;;;;;26.83;14.60;;;12.30;70.30;;;;;;4977003;28;20217;-76
2023/03/03 09:12:15;;;;;;;28.80;13.70;;;12.30;70.30;;;;;;4971455;28;20233;-75
2023/03/03 09:14:44;;;;;;;27.23;13.77;;;12.40;70.10;;;;;;4971215;28;20205;-76
2023/03/03 09:17:25;;;;;;;29.70;15.00;;;12.40;69.50;;;;;;4977235;28;20300;-77
2023/03/03 09:19:57;;;;;;;31.60;14.80;;;12.40;69.70;;;;;;4973791;28;20194;-76
2023/03/03 09:22:28;;;;;;;25.73;13.30;;;12.40;69.50;;;;;;4981586;28;20204;-76
2023/03/03 09:24:59;;;;;;;29.33;13.63;;;12.50;69.60;;;;;;4970611;28;20678;-76
2023/03/03 09:27:29;;;;;;;29.27;13.47;;;12.60;69.40;;;;;;4968934;28;20201;-76
2023/03/03 09:30:01;;;;;;;32.17;14.27;;;12.60;69.40;;;;;;4971669;28;20205;-77
2023/03/03 09:32:36;;;;;;;32.10;14.77;;;12.60;68.70;;;;;;4977712;28;20206;-76
2023/03/03 09:35:37;;;;;;;25.50;13.77;;;12.60;68.30;;;;;;4972561;28;20733;-76
2023/03/03 09:38:18;;;;;;;27.20;13.93;;;12.70;68.80;;;;;;4977370;28;20675;-75
2023/03/03 09:41:09;;;;;;;26.30;13.27;;;12.70;69.10;;;;;;4977032;28;20196;-75
2023/03/03 09:43:48;;;;;;;27.00;13.53;;;12.80;68.60;;;;;;4974160;28;20197;-75
2023/03/03 09:46:28;;;;;;;25.90;12.70;;;12.80;68.40;;;;;;4977520;28;20204;-76
2023/03/03 09:49:06;;;;;;;22.60;13.10;;;12.80;68.20;;;;;;4974551;28;21838;-77
2023/03/03 09:51:50;;;;;;;22.30;13.13;;;12.90;68.30;;;;;;4977060;28;20193;-77
2023/03/03 09:54:38;;;;;;;26.60;13.53;;;12.90;68.60;;;;;;4971785;28;20674;-76
2023/03/03 09:57:14;;;;;;;26.13;14.33;;;13.00;68.80;;;;;;4970757;28;20252;-76
2023/03/03 10:00:04;;;;;;;31.67;15.00;;;13.00;68.60;;;;;;4979789;28;20301;-76
2023/03/03 10:02:46;;;;;;;28.33;15.00;;;13.00;67.50;;;;;;4977272;28;20193;-76
2023/03/03 10:05:39;;;;;;;27.67;14.63;;;13.00;67.70;;;;;;4978804;28;20234;-75
2023/03/03 10:08:25;;;;;;;29.93;15.17;;;13.10;67.80;;;;;;4972617;28;21089;-76
2023/03/03 10:11:03;;;;;;;26.87;14.77;;;13.10;67.50;;;;;;4969467;28;20251;-76
2023/03/03 10:14:03;;;;;;;28.37;14.83;;;13.20;67.70;;;;;;4973238;28;20209;-77
2023/03/03 10:16:49;;;;;;;30.13;16.23;;;13.20;67.80;;;;;;4972484;28;20443;-76
2023/03/03 10:19:34;;;;;;;27.97;13.90;;;13.30;67.40;;;;;;4971817;28;20205;-76
2023/03/03 10:22:18;;;;;;;27.87;13.57;;;13.30;66.70;;;;;;4964337;28;20670;-75
2023/03/03 10:25:03;;;;;;;24.30;14.23;;;13.30;66.70;;;;;;4969799;28;20200;-74
2023/03/03 10:27:47;;;;;;;23.10;13.27;;;13.30;65.90;;;;;;4976648;28;20204;-77
2023/03/03 10:30:25;;;;;;;29.80;15.70;;;13.30;66.40;;;;;;4967204;28;20693;-76
2023/03/03 10:33:16;;;;;;;31.90;16.20;;;13.30;66.40;;;;;;4974431;28;20265;-76
2023/03/03 10:36:17;;;;;;;25.47;14.93;;;13.40;66.50;;;;;;4974743;28;20201;-75
2023/03/03 10:38:55;;;;;;;27.97;15.80;;;13.40;66.30;;;;;;4965090;28;20244;-77
2023/03/03 10:41:59;;;;;;;29.93;15.63;;;13.40;66.60;;;;;;4972202;28;20200;-75
2023/03/03 10:44:50;;;;;;;29.43;15.83;;;13.50;66.40;;;;;;4969282;28;20205;-76
2023/03/03 10:47:35;;;;;;;31.70;15.53;;;13.40;65.60;;;;;;4976119;28;20206;-75
2023/03/03 10:50:12;;;;;;;33.87;15.50;;;13.50;65.80;;;;;;4978384;28;20740;-77
2023/03/03 10:52:46;;;;;;;27.93;15.40;;;13.50;66.00;;;;;;4976916;28;20201;-76
2023/03/03 10:55:36;;;;;;;31.60;16.03;;;13.50;65.70;;;;;;4979471;28;20289;-75
2023/03/03 10:58:38;;;;;;;28.90;15.83;;;13.60;66.00;;;;;;4980441;28;20201;-76
2023/03/03 11:01:18;;;;;;;31.77;16.93;;;13.60;65.80;;;;;;4972764;28;20302;-76
2023/03/03 11:04:10;;;;;;;30.67;16.80;;;13.60;65.80;;;;;;4968362;28;20655;-76
2023/03/03 11:06:48;;;;;;;31.20;15.63;;;13.60;65.10;;;;;;4961202;28;20687;-77
2023/03/03 11:09:31;;;;;;;31.67;16.70;;;13.70;65.70;;;;;;4959671;28;20658;-76
2023/03/03 11:12:09;;;;;;;30.37;15.93;;;13.70;65.50;;;;;;4953126;28;20225;-77
2023/03/03 11:14:47;;;;;;;31.33;16.87;;;13.70;65.70;;;;;;4951868;28;20222;-77
2023/03/03 11:17:28;;;;;;;28.03;16.57;;;13.70;65.40;;;;;;4951567;28;20210;-76
2023/03/03 11:20:06;;;;;;;35.47;16.80;;;13.70;65.20;;;;;;4949557;28;20194;-77
2023/03/03 11:22:45;;;;;;;29.90;16.43;;;13.70;65.40;;;;;;4961797;28;20190;-79
2023/03/03 11:25:27;;;;;;;30.87;16.83;;;13.80;65.80;;;;;;4951457;28;20199;-77
2023/03/03 11:28:15;;;;;;;29.73;15.87;;;13.80;65.60;;;;;;4946829;28;20187;-76
2023/03/03 11:31:02;;;;;;;30.33;16.20;;;13.80;65.70;;;;;;4954633;28;20587;-76
2023/03/03 11:33:39;;;;;;;31.13;16.73;;;13.90;65.40;;;;;;4931422;28;20230;-77
2023/03/03 11:36:14;;;;;;;32.60;15.70;;;13.90;65.10;;;;;;4944929;28;20138;-76
2023/03/03 11:38:51;;;;;;;28.00;14.87;;;13.90;65.20;;;;;;4946618;28;20198;-76
2023/03/03 11:41:39;;;;;;;31.33;16.47;;;13.90;65.40;;;;;;4953327;28;20622;-76
2023/03/03 11:44:19;;;;;;;29.13;15.13;;;13.90;65.70;;;;;;4946198;28;20204;-78
2023/03/03 11:46:53;;;;;;;33.27;16.87;;;13.90;66.10;;;;;;4951827;28;20560;-76
2023/03/03 11:49:27;;;;;;;27.63;15.53;;;13.90;65.30;;;;;;4943142;28;20229;-77
2023/03/03 11:52:08;;;;;;;32.00;15.03;;;13.90;65.10;;;;;;4953068;28;20190;-76
2023/03/03 11:54:46;;;;;;;27.67;13.90;;;13.90;65.00;;;;;;4949561;28;20555;-77
2023/03/03 11:57:21;;;;;;;29.43;15.13;;;13.90;64.90;;;;;;4950295;28;20198;-78
2023/03/03 11:59:59;;;;;;;31.33;15.13;;;13.90;65.00;;;;;;4952217;28;20323;-77
2023/03/03 12:02:51;;;;;;;32.47;15.60;;;13.90;65.10;;;;;;4946317;28;20194;-76
2023/03/03 12:05:32;;;;;;;31.57;15.73;;;13.90;65.20;;;;;;4946962;28;20198;-76
2023/03/03 12:08:13;;;;;;;28.80;15.67;;;13.90;65.20;;;;;;4950221;28;20225;-78
2023/03/03 12:10:49;;;;;;;31.90;15.20;;;13.90;65.20;;;;;;4954637;28;20225;-77
2023/03/03 12:13:29;;;;;;;30.33;14.23;;;13.90;65.40;;;;;;4948577;28;20292;-77
2023/03/03 12:16:07;;;;;;;30.30;15.63;;;13.90;66.10;;;;;;4943400;28;20195;-78
2023/03/03 12:18:57;;;;;;;29.33;16.63;;;13.80;65.20;;;;;;4951681;28;20198;-77
2023/03/03 12:21:40;;;;;;;28.97;15.50;;;13.90;65.10;;;;;;4953381;29;20194;-77
2023/03/03 12:24:29;;;;;;;29.63;15.37;;;13.90;65.50;;;;;;4945847;29;20198;-77
2023/03/03 12:27:11;;;;;;;26.43;13.70;;;13.80;65.60;;;;;;4946661;28;20664;-76
2023/03/03 12:29:49;;;;;;;28.10;14.90;;;13.90;66.10;;;;;;4947814;29;20210;-77
2023/03/03 12:32:29;;;;;;;25.63;13.13;;;13.90;65.80;;;;;;4951542;29;20230;-77
2023/03/03 12:35:07;;;;;;;24.37;13.57;;;13.90;65.80;;;;;;4951468;28;20210;-77
2023/03/03 12:37:53;;;;;;;25.80;14.53;;;13.80;65.80;;;;;;4949816;28;20194;-79
2023/03/03 12:40:26;;;;;;;27.63;13.93;;;13.80;65.50;;;;;;4952411;29;20254;-77
2023/03/03 12:43:06;;;;;;;24.23;13.23;;;13.70;65.40;;;;;;4953524;28;20199;-78
2023/03/03 12:45:49;;;;;;;30.57;14.03;;;13.80;66.00;;;;;;4952232;28;20199;-78
2023/03/03 12:48:20;;;;;;;31.00;14.83;;;13.80;66.30;;;;;;4953866;29;20201;-77
2023/03/03 12:51:00;;;;;;;28.57;14.57;;;13.80;65.60;;;;;;4959808;28;20194;-77
2023/03/03 12:53:40;;;;;;;26.10;15.00;;;13.80;65.70;;;;;;4949984;28;20194;-77
2023/03/03 12:56:10;;;;;;;26.37;13.73;;;13.90;66.00;;;;;;4955114;28;20273;-78
2023/03/03 12:58:49;;;;;;;27.17;15.17;;;13.90;66.40;;;;;;4952112;29;20265;-77
2023/03/03 13:01:33;;;;;;;25.53;13.77;;;13.90;65.80;;;;;;4951486;28;20237;-78
2023/03/03 13:04:10;;;;;;;25.97;12.60;;;14.00;65.50;;;;;;4953228;29;20237;-76